sensor_id;sensor_type;location;lat;lon;timestamp;temperature;humidity
16287;DHT22;8251;53.568;10.018;2023-05-10T00:01:15;18.40;47.60
16287;DHT22;8251;53.568;10.018;2023-05-10T00:03:42;18.40;47.80
16287;DHT22;8251;53.568;10.018;2023-05-10T00:06:09;18.40;47.80
16287;DHT22;8251;53.568;10.018;2023-05-10T00:08:36;18.40;47.80
16287;DHT22;8251;53.568;10.018;2023-05-10T00:11:03;18.40;47.80
16287;DHT22;8251;53.568;10.018;2023-05-10T00:13:29;18.40;48.00
16287;DHT22;8251;53.568;10.018;2023-05-10T00:15:57;18.30;48.00
16287;DHT22;8251;53.568;10.018;2023-05-10T00:18:25;18.30;48.20
16287;DHT22;8251;53.568;10.018;2023-05-10T00:20:52;18.30;48.30
16287;DHT22;8251;53.568;10.018;2023-05-10T00:23:19;18.30;48.40
16287;DHT22;8251;53.568;10.018;2023-05-10T00:25:46;18.30;48.50
16287;DHT22;8251;53.568;10.018;2023-05-10T00:28:13;18.30;48.50
16287;DHT22;8251;53.568;10.018;2023-05-10T00:30:39;18.20;48.50
16287;DHT22;8251;53.568;10.018;2023-05-10T00:33:06;18.20;48.60
16287;DHT22;8251;53.568;10.018;2023-05-10T00:35:34;18.20;48.70
16287;DHT22;8251;53.568;10.018;2023-05-10T00:38:01;18.20;48.90
16287;DHT22;8251;53.568;10.018;2023-05-10T00:40:29;18.20;49.00
16287;DHT22;8251;53.568;10.018;2023-05-10T00:42:56;18.20;49.00
16287;DHT22;8251;53.568;10.018;2023-05-10T00:45:23;18.10;49.10
16287;DHT22;8251;53.568;10.018;2023-05-10T00:47:50;18.10;49.20
16287;DHT22;8251;53.568;10.018;2023-05-10T00:50:20;18.20;49.20
16287;DHT22;8251;53.568;10.018;2023-05-10T00:52:49;18.10;49.30
16287;DHT22;8251;53.568;10.018;2023-05-10T00:55:16;18.10;49.50
16287;DHT22;8251;53.568;10.018;2023-05-10T00:57:44;18.10;49.50
16287;DHT22;8251;53.568;10.018;2023-05-10T01:00:12;18.10;49.40
16287;DHT22;8251;53.568;10.018;2023-05-10T01:02:43;18.00;49.60
16287;DHT22;8251;53.568;10.018;2023-05-10T01:05:10;18.00;49.70
16287;DHT22;8251;53.568;10.018;2023-05-10T01:07:38;18.00;49.80
16287;DHT22;8251;53.568;10.018;2023-05-10T01:10:07;18.00;49.90
16287;DHT22;8251;53.568;10.018;2023-05-10T01:12:37;17.90;49.80
16287;DHT22;8251;53.568;10.018;2023-05-10T01:15:06;18.00;50.00
16287;DHT22;8251;53.568;10.018;2023-05-10T01:17:33;17.90;49.90
16287;DHT22;8251;53.568;10.018;2023-05-10T01:20:00;17.90;50.00
16287;DHT22;8251;53.568;10.018;2023-05-10T01:22:57;17.90;50.10
16287;DHT22;8251;53.568;10.018;2023-05-10T01:25:46;17.90;50.10
16287;DHT22;8251;53.568;10.018;2023-05-10T01:31:55;17.90;50.40
16287;DHT22;8251;53.568;10.018;2023-05-10T01:34:29;17.90;50.40
16287;DHT22;8251;53.568;10.018;2023-05-10T01:37:06;17.80;50.50
16287;DHT22;8251;53.568;10.018;2023-05-10T01:39:39;17.90;50.50
16287;DHT22;8251;53.568;10.018;2023-05-10T01:42:16;17.80;50.50
16287;DHT22;8251;53.568;10.018;2023-05-10T01:44:49;17.80;50.60
16287;DHT22;8251;53.568;10.018;2023-05-10T01:47:27;17.80;50.80
16287;DHT22;8251;53.568;10.018;2023-05-10T01:49:55;17.80;50.80
16287;DHT22;8251;53.568;10.018;2023-05-10T01:52:26;17.80;51.10
16287;DHT22;8251;53.568;10.018;2023-05-10T01:55:01;17.70;51.00
16287;DHT22;8251;53.568;10.018;2023-05-10T01:57:33;17.70;51.20
16287;DHT22;8251;53.568;10.018;2023-05-10T02:00:02;17.70;51.10
16287;DHT22;8251;53.568;10.018;2023-05-10T02:02:34;17.70;51.20
16287;DHT22;8251;53.568;10.018;2023-05-10T02:05:05;17.70;51.10
16287;DHT22;8251;53.568;10.018;2023-05-10T02:07:35;17.70;51.20
16287;DHT22;8251;53.568;10.018;2023-05-10T02:10:04;17.60;51.40
16287;DHT22;8251;53.568;10.018;2023-05-10T02:12:36;17.60;51.30
16287;DHT22;8251;53.568;10.018;2023-05-10T02:15:06;17.60;51.50
16287;DHT22;8251;53.568;10.018;2023-05-10T02:17:35;17.60;51.60
16287;DHT22;8251;53.568;10.018;2023-05-10T02:20:05;17.50;51.60
16287;DHT22;8251;53.568;10.018;2023-05-10T02:22:34;17.50;51.60
16287;DHT22;8251;53.568;10.018;2023-05-10T02:25:03;17.50;51.60
16287;DHT22;8251;53.568;10.018;2023-05-10T02:27:30;17.50;51.70
16287;DHT22;8251;53.568;10.018;2023-05-10T02:29:58;17.40;51.90
16287;DHT22;8251;53.568;10.018;2023-05-10T02:32:27;17.40;51.90
16287;DHT22;8251;53.568;10.018;2023-05-10T02:34:57;17.50;51.90
16287;DHT22;8251;53.568;10.018;2023-05-10T02:37:25;17.40;51.90
16287;DHT22;8251;53.568;10.018;2023-05-10T02:39:55;17.40;52.00
16287;DHT22;8251;53.568;10.018;2023-05-10T02:42:26;17.40;52.10
16287;DHT22;8251;53.568;10.018;2023-05-10T02:44:56;17.40;52.20
16287;DHT22;8251;53.568;10.018;2023-05-10T02:47:23;17.30;52.20
16287;DHT22;8251;53.568;10.018;2023-05-10T02:49:50;17.30;52.20
16287;DHT22;8251;53.568;10.018;2023-05-10T02:52:21;17.30;52.20
16287;DHT22;8251;53.568;10.018;2023-05-10T02:54:54;17.30;52.40
16287;DHT22;8251;53.568;10.018;2023-05-10T02:57:26;17.20;52.50
16287;DHT22;8251;53.568;10.018;2023-05-10T02:59:54;17.30;52.60
16287;DHT22;8251;53.568;10.018;2023-05-10T03:02:21;17.30;52.60
16287;DHT22;8251;53.568;10.018;2023-05-10T03:04:48;17.30;52.60
16287;DHT22;8251;53.568;10.018;2023-05-10T03:07:15;17.30;52.60
16287;DHT22;8251;53.568;10.018;2023-05-10T03:09:46;17.30;52.70
16287;DHT22;8251;53.568;10.018;2023-05-10T03:12:18;17.20;52.70
16287;DHT22;8251;53.568;10.018;2023-05-10T03:14:53;17.20;52.70
16287;DHT22;8251;53.568;10.018;2023-05-10T03:17:29;17.10;52.90
16287;DHT22;8251;53.568;10.018;2023-05-10T03:19:58;17.10;53.10
16287;DHT22;8251;53.568;10.018;2023-05-10T03:22:32;17.10;53.10
16287;DHT22;8251;53.568;10.018;2023-05-10T03:25:05;17.10;53.00
16287;DHT22;8251;53.568;10.018;2023-05-10T03:27:36;17.10;53.20
16287;DHT22;8251;53.568;10.018;2023-05-10T03:30:07;17.00;53.20
16287;DHT22;8251;53.568;10.018;2023-05-10T03:32:34;17.10;53.40
16287;DHT22;8251;53.568;10.018;2023-05-10T03:35:06;17.10;53.40
16287;DHT22;8251;53.568;10.018;2023-05-10T03:37:33;17.10;53.30
16287;DHT22;8251;53.568;10.018;2023-05-10T03:40:01;17.10;53.50
16287;DHT22;8251;53.568;10.018;2023-05-10T03:42:28;17.00;53.40
16287;DHT22;8251;53.568;10.018;2023-05-10T03:44:56;17.00;53.50
16287;DHT22;8251;53.568;10.018;2023-05-10T03:47:23;17.00;54.10
16287;DHT22;8251;53.568;10.018;2023-05-10T03:49:50;17.00;53.60
16287;DHT22;8251;53.568;10.018;2023-05-10T03:52:17;16.90;53.60
16287;DHT22;8251;53.568;10.018;2023-05-10T03:54:44;16.90;53.70
16287;DHT22;8251;53.568;10.018;2023-05-10T03:57:13;16.90;53.80
16287;DHT22;8251;53.568;10.018;2023-05-10T03:59:39;16.90;53.80
16287;DHT22;8251;53.568;10.018;2023-05-10T04:02:06;16.80;53.90
16287;DHT22;8251;53.568;10.018;2023-05-10T04:04:33;16.90;53.90
16287;DHT22;8251;53.568;10.018;2023-05-10T04:07:00;16.90;54.00
16287;DHT22;8251;53.568;10.018;2023-05-10T04:09:27;16.80;54.00
16287;DHT22;8251;53.568;10.018;2023-05-10T04:11:54;16.90;54.20
16287;DHT22;8251;53.568;10.018;2023-05-10T04:14:22;16.90;54.20
16287;DHT22;8251;53.568;10.018;2023-05-10T04:16:49;16.80;54.30
16287;DHT22;8251;53.568;10.018;2023-05-10T04:19:16;16.80;54.20
16287;DHT22;8251;53.568;10.018;2023-05-10T04:21:43;16.90;54.40
16287;DHT22;8251;53.568;10.018;2023-05-10T04:24:10;16.90;54.30
16287;DHT22;8251;53.568;10.018;2023-05-10T04:26:37;16.80;54.10
16287;DHT22;8251;53.568;10.018;2023-05-10T04:29:04;16.90;54.30
16287;DHT22;8251;53.568;10.018;2023-05-10T04:31:32;16.80;54.40
16287;DHT22;8251;53.568;10.018;2023-05-10T04:34:01;16.90;54.50
16287;DHT22;8251;53.568;10.018;2023-05-10T04:36:28;16.90;54.50
16287;DHT22;8251;53.568;10.018;2023-05-10T04:38:55;16.90;54.40
16287;DHT22;8251;53.568;10.018;2023-05-10T04:41:22;16.90;54.40
16287;DHT22;8251;53.568;10.018;2023-05-10T04:43:50;16.80;54.40
16287;DHT22;8251;53.568;10.018;2023-05-10T04:46:18;16.80;54.60
16287;DHT22;8251;53.568;10.018;2023-05-10T04:48:46;16.80;54.60
16287;DHT22;8251;53.568;10.018;2023-05-10T04:51:13;16.80;54.70
16287;DHT22;8251;53.568;10.018;2023-05-10T04:53:40;16.80;55.00
16287;DHT22;8251;53.568;10.018;2023-05-10T04:56:07;16.80;54.70
16287;DHT22;8251;53.568;10.018;2023-05-10T04:58:34;16.80;54.70
16287;DHT22;8251;53.568;10.018;2023-05-10T05:01:05;16.80;54.40
16287;DHT22;8251;53.568;10.018;2023-05-10T05:03:33;16.90;54.60
16287;DHT22;8251;53.568;10.018;2023-05-10T05:06:01;16.90;54.50
16287;DHT22;8251;53.568;10.018;2023-05-10T05:08:29;16.90;54.60
16287;DHT22;8251;53.568;10.018;2023-05-10T05:10:56;16.90;54.50
16287;DHT22;8251;53.568;10.018;2023-05-10T05:13:23;16.90;54.60
16287;DHT22;8251;53.568;10.018;2023-05-10T05:15:50;17.00;54.80
16287;DHT22;8251;53.568;10.018;2023-05-10T05:18:17;17.00;54.60
16287;DHT22;8251;53.568;10.018;2023-05-10T05:20:43;17.10;54.50
16287;DHT22;8251;53.568;10.018;2023-05-10T05:23:12;17.20;54.30
16287;DHT22;8251;53.568;10.018;2023-05-10T05:25:38;17.20;54.10
16287;DHT22;8251;53.568;10.018;2023-05-10T05:28:05;17.20;54.10
16287;DHT22;8251;53.568;10.018;2023-05-10T05:30:32;17.30;54.10
16287;DHT22;8251;53.568;10.018;2023-05-10T05:33:03;17.30;54.30
16287;DHT22;8251;53.568;10.018;2023-05-10T05:35:34;17.40;54.10
16287;DHT22;8251;53.568;10.018;2023-05-10T05:38:01;17.40;54.00
16287;DHT22;8251;53.568;10.018;2023-05-10T05:40:29;17.40;53.60
16287;DHT22;8251;53.568;10.018;2023-05-10T05:42:56;17.40;53.70
16287;DHT22;8251;53.568;10.018;2023-05-10T05:45:23;17.40;53.70
16287;DHT22;8251;53.568;10.018;2023-05-10T05:47:50;17.50;53.80
16287;DHT22;8251;53.568;10.018;2023-05-10T05:50:17;17.50;53.60
16287;DHT22;8251;53.568;10.018;2023-05-10T05:52:44;17.60;53.70
16287;DHT22;8251;53.568;10.018;2023-05-10T05:55:11;17.60;53.60
16287;DHT22;8251;53.568;10.018;2023-05-10T05:57:39;17.70;53.50
16287;DHT22;8251;53.568;10.018;2023-05-10T06:00:07;17.70;53.50
16287;DHT22;8251;53.568;10.018;2023-05-10T06:02:34;17.80;53.50
16287;DHT22;8251;53.568;10.018;2023-05-10T06:05:01;17.80;53.30
16287;DHT22;8251;53.568;10.018;2023-05-10T06:07:28;17.80;53.30
16287;DHT22;8251;53.568;10.018;2023-05-10T06:09:58;17.90;53.10
16287;DHT22;8251;53.568;10.018;2023-05-10T06:12:28;18.00;53.00
16287;DHT22;8251;53.568;10.018;2023-05-10T06:14:57;18.10;53.00
16287;DHT22;8251;53.568;10.018;2023-05-10T06:17:24;18.10;52.80
16287;DHT22;8251;53.568;10.018;2023-05-10T06:19:51;18.10;52.80
16287;DHT22;8251;53.568;10.018;2023-05-10T06:22:18;18.20;52.60
16287;DHT22;8251;53.568;10.018;2023-05-10T06:24:45;18.30;52.60
16287;DHT22;8251;53.568;10.018;2023-05-10T06:27:11;18.40;52.40
16287;DHT22;8251;53.568;10.018;2023-05-10T06:29:38;18.40;52.30
16287;DHT22;8251;53.568;10.018;2023-05-10T06:32:07;18.50;52.10
16287;DHT22;8251;53.568;10.018;2023-05-10T06:34:36;18.50;52.10
16287;DHT22;8251;53.568;10.018;2023-05-10T06:37:03;18.70;52.10
16287;DHT22;8251;53.568;10.018;2023-05-10T06:39:30;18.70;51.80
16287;DHT22;8251;53.568;10.018;2023-05-10T06:41:57;18.70;51.90
16287;DHT22;8251;53.568;10.018;2023-05-10T06:44:28;18.80;52.20
16287;DHT22;8251;53.568;10.018;2023-05-10T06:46:56;18.90;52.30
16287;DHT22;8251;53.568;10.018;2023-05-10T06:49:24;19.00;52.10
16287;DHT22;8251;53.568;10.018;2023-05-10T06:51:51;18.90;51.50
16287;DHT22;8251;53.568;10.018;2023-05-10T06:54:18;18.90;51.60
16287;DHT22;8251;53.568;10.018;2023-05-10T06:56:45;18.90;52.00
16287;DHT22;8251;53.568;10.018;2023-05-10T06:59:19;19.00;51.60
16287;DHT22;8251;53.568;10.018;2023-05-10T07:01:50;19.00;51.60
16287;DHT22;8251;53.568;10.018;2023-05-10T07:04:19;19.00;51.80
16287;DHT22;8251;53.568;10.018;2023-05-10T07:06:48;18.90;51.60
16287;DHT22;8251;53.568;10.018;2023-05-10T07:09:15;19.00;51.70
16287;DHT22;8251;53.568;10.018;2023-05-10T07:11:42;19.10;52.00
16287;DHT22;8251;53.568;10.018;2023-05-10T07:14:09;19.20;51.70
16287;DHT22;8251;53.568;10.018;2023-05-10T07:16:38;19.20;51.80
16287;DHT22;8251;53.568;10.018;2023-05-10T07:19:10;19.30;51.90
16287;DHT22;8251;53.568;10.018;2023-05-10T07:21:40;19.30;52.10
16287;DHT22;8251;53.568;10.018;2023-05-10T07:24:10;19.40;51.80
16287;DHT22;8251;53.568;10.018;2023-05-10T07:26:37;19.50;51.60
16287;DHT22;8251;53.568;10.018;2023-05-10T07:29:04;19.60;51.50
16287;DHT22;8251;53.568;10.018;2023-05-10T07:31:31;19.70;51.40
16287;DHT22;8251;53.568;10.018;2023-05-10T07:33:58;19.80;51.10
16287;DHT22;8251;53.568;10.018;2023-05-10T07:36:25;20.00;51.10
16287;DHT22;8251;53.568;10.018;2023-05-10T07:38:52;20.10;51.00
16287;DHT22;8251;53.568;10.018;2023-05-10T07:41:21;20.20;50.60
16287;DHT22;8251;53.568;10.018;2023-05-10T07:43:48;20.30;50.50
16287;DHT22;8251;53.568;10.018;2023-05-10T07:46:14;20.30;50.60
16287;DHT22;8251;53.568;10.018;2023-05-10T07:48:41;20.40;50.60
16287;DHT22;8251;53.568;10.018;2023-05-10T07:51:08;20.40;50.10
16287;DHT22;8251;53.568;10.018;2023-05-10T07:53:36;20.40;49.90
16287;DHT22;8251;53.568;10.018;2023-05-10T07:56:23;20.50;50.10
16287;DHT22;8251;53.568;10.018;2023-05-10T07:58:53;20.50;49.60
16287;DHT22;8251;53.568;10.018;2023-05-10T08:01:20;20.60;49.40
16287;DHT22;8251;53.568;10.018;2023-05-10T08:03:47;20.60;49.10
16287;DHT22;8251;53.568;10.018;2023-05-10T08:06:15;20.60;49.20
16287;DHT22;8251;53.568;10.018;2023-05-10T08:08:42;20.70;49.60
16287;DHT22;8251;53.568;10.018;2023-05-10T08:11:11;20.70;49.60
16287;DHT22;8251;53.568;10.018;2023-05-10T08:13:39;20.70;49.60
16287;DHT22;8251;53.568;10.018;2023-05-10T08:16:06;20.70;49.20
16287;DHT22;8251;53.568;10.018;2023-05-10T08:18:33;20.60;50.30
16287;DHT22;8251;53.568;10.018;2023-05-10T08:21:00;20.60;50.00
16287;DHT22;8251;53.568;10.018;2023-05-10T08:23:27;20.60;50.00
16287;DHT22;8251;53.568;10.018;2023-05-10T08:25:54;20.60;50.10
16287;DHT22;8251;53.568;10.018;2023-05-10T08:28:21;20.70;50.70
16287;DHT22;8251;53.568;10.018;2023-05-10T08:30:49;20.70;50.10
16287;DHT22;8251;53.568;10.018;2023-05-10T08:33:17;20.70;50.00
16287;DHT22;8251;53.568;10.018;2023-05-10T08:35:44;20.80;50.00
16287;DHT22;8251;53.568;10.018;2023-05-10T08:38:11;20.80;50.00
16287;DHT22;8251;53.568;10.018;2023-05-10T08:40:41;20.80;49.70
16287;DHT22;8251;53.568;10.018;2023-05-10T08:43:10;20.80;49.60
16287;DHT22;8251;53.568;10.018;2023-05-10T08:45:39;20.70;50.20
16287;DHT22;8251;53.568;10.018;2023-05-10T08:48:09;20.70;50.50
16287;DHT22;8251;53.568;10.018;2023-05-10T08:50:37;20.80;50.10
16287;DHT22;8251;53.568;10.018;2023-05-10T08:53:06;20.80;50.30
16287;DHT22;8251;53.568;10.018;2023-05-10T08:55:33;20.80;50.00
16287;DHT22;8251;53.568;10.018;2023-05-10T08:58:02;20.90;49.80
16287;DHT22;8251;53.568;10.018;2023-05-10T09:00:30;20.90;49.80
16287;DHT22;8251;53.568;10.018;2023-05-10T09:02:58;20.90;49.90
16287;DHT22;8251;53.568;10.018;2023-05-10T09:05:26;21.00;49.80
16287;DHT22;8251;53.568;10.018;2023-05-10T09:07:54;21.00;50.00
16287;DHT22;8251;53.568;10.018;2023-05-10T09:10:21;21.10;50.20
16287;DHT22;8251;53.568;10.018;2023-05-10T09:12:51;21.20;50.10
16287;DHT22;8251;53.568;10.018;2023-05-10T09:15:19;21.20;50.20
16287;DHT22;8251;53.568;10.018;2023-05-10T09:17:47;21.20;50.40
16287;DHT22;8251;53.568;10.018;2023-05-10T09:20:15;21.20;50.40
16287;DHT22;8251;53.568;10.018;2023-05-10T09:22:44;21.30;50.30
16287;DHT22;8251;53.568;10.018;2023-05-10T09:25:12;21.30;50.40
16287;DHT22;8251;53.568;10.018;2023-05-10T09:27:41;21.30;50.90
16287;DHT22;8251;53.568;10.018;2023-05-10T09:30:10;21.30;50.50
16287;DHT22;8251;53.568;10.018;2023-05-10T09:32:44;21.40;51.30
16287;DHT22;8251;53.568;10.018;2023-05-10T09:35:13;21.40;51.50
16287;DHT22;8251;53.568;10.018;2023-05-10T09:37:42;21.30;51.10
16287;DHT22;8251;53.568;10.018;2023-05-10T09:40:14;21.30;51.40
16287;DHT22;8251;53.568;10.018;2023-05-10T09:42:50;21.30;51.40
16287;DHT22;8251;53.568;10.018;2023-05-10T09:45:19;21.20;52.70
16287;DHT22;8251;53.568;10.018;2023-05-10T09:47:48;21.10;53.10
16287;DHT22;8251;53.568;10.018;2023-05-10T09:50:16;21.10;54.10
16287;DHT22;8251;53.568;10.018;2023-05-10T09:52:48;21.00;55.20
16287;DHT22;8251;53.568;10.018;2023-05-10T09:55:18;20.90;55.60
16287;DHT22;8251;53.568;10.018;2023-05-10T09:57:47;20.80;56.70
16287;DHT22;8251;53.568;10.018;2023-05-10T10:00:19;20.80;58.00
16287;DHT22;8251;53.568;10.018;2023-05-10T10:02:55;20.70;58.00
16287;DHT22;8251;53.568;10.018;2023-05-10T10:05:28;20.70;58.40
16287;DHT22;8251;53.568;10.018;2023-05-10T10:07:55;20.60;58.90
16287;DHT22;8251;53.568;10.018;2023-05-10T10:10:24;20.50;59.70
16287;DHT22;8251;53.568;10.018;2023-05-10T10:12:54;20.30;60.50
16287;DHT22;8251;53.568;10.018;2023-05-10T10:15:24;20.30;60.90
16287;DHT22;8251;53.568;10.018;2023-05-10T10:17:52;20.20;61.60
16287;DHT22;8251;53.568;10.018;2023-05-10T10:20:20;20.20;62.20
16287;DHT22;8251;53.568;10.018;2023-05-10T10:22:48;20.10;63.10
16287;DHT22;8251;53.568;10.018;2023-05-10T10:25:16;20.00;63.40
16287;DHT22;8251;53.568;10.018;2023-05-10T10:27:49;20.00;64.00
16287;DHT22;8251;53.568;10.018;2023-05-10T10:30:25;19.90;64.80
16287;DHT22;8251;53.568;10.018;2023-05-10T10:33:13;19.80;65.10
16287;DHT22;8251;53.568;10.018;2023-05-10T10:35:45;19.70;66.30
16287;DHT22;8251;53.568;10.018;2023-05-10T10:38:13;19.50;66.30
16287;DHT22;8251;53.568;10.018;2023-05-10T10:40:40;19.40;66.60
16287;DHT22;8251;53.568;10.018;2023-05-10T10:43:24;19.40;67.90
16287;DHT22;8251;53.568;10.018;2023-05-10T10:46:11;19.40;68.20
16287;DHT22;8251;53.568;10.018;2023-05-10T10:48:39;19.40;68.70
16287;DHT22;8251;53.568;10.018;2023-05-10T10:51:06;19.30;68.90
16287;DHT22;8251;53.568;10.018;2023-05-10T10:53:33;19.20;69.80
16287;DHT22;8251;53.568;10.018;2023-05-10T10:56:08;19.20;69.60
16287;DHT22;8251;53.568;10.018;2023-05-10T10:58:39;19.20;69.70
16287;DHT22;8251;53.568;10.018;2023-05-10T11:01:11;19.20;69.80
16287;DHT22;8251;53.568;10.018;2023-05-10T11:03:38;19.20;70.70
16287;DHT22;8251;53.568;10.018;2023-05-10T11:06:06;19.20;70.90
16287;DHT22;8251;53.568;10.018;2023-05-10T11:08:43;19.30;70.70
16287;DHT22;8251;53.568;10.018;2023-05-10T11:11:14;19.30;70.30
16287;DHT22;8251;53.568;10.018;2023-05-10T11:13:44;19.30;71.40
16287;DHT22;8251;53.568;10.018;2023-05-10T11:16:17;19.30;70.80
16287;DHT22;8251;53.568;10.018;2023-05-10T11:18:53;19.20;70.10
16287;DHT22;8251;53.568;10.018;2023-05-10T11:21:20;19.30;70.90
16287;DHT22;8251;53.568;10.018;2023-05-10T11:23:49;19.20;71.20
16287;DHT22;8251;53.568;10.018;2023-05-10T11:26:17;19.30;71.70
16287;DHT22;8251;53.568;10.018;2023-05-10T11:28:47;19.30;71.70
16287;DHT22;8251;53.568;10.018;2023-05-10T11:31:18;19.30;71.90
16287;DHT22;8251;53.568;10.018;2023-05-10T11:33:46;19.30;70.80
16287;DHT22;8251;53.568;10.018;2023-05-10T11:36:15;19.30;72.00
16287;DHT22;8251;53.568;10.018;2023-05-10T11:38:42;19.30;72.30
16287;DHT22;8251;53.568;10.018;2023-05-10T11:41:10;19.40;72.30
16287;DHT22;8251;53.568;10.018;2023-05-10T11:43:40;19.30;71.80
16287;DHT22;8251;53.568;10.018;2023-05-10T11:46:11;19.30;71.00
16287;DHT22;8251;53.568;10.018;2023-05-10T11:48:39;19.30;71.30
16287;DHT22;8251;53.568;10.018;2023-05-10T11:51:06;19.20;70.00
16287;DHT22;8251;53.568;10.018;2023-05-10T11:53:34;19.10;70.00
16287;DHT22;8251;53.568;10.018;2023-05-10T11:56:05;19.10;70.80
16287;DHT22;8251;53.568;10.018;2023-05-10T11:58:33;19.00;71.40
16287;DHT22;8251;53.568;10.018;2023-05-10T12:01:01;19.10;72.20
16287;DHT22;8251;53.568;10.018;2023-05-10T12:03:30;19.10;72.60
16287;DHT22;8251;53.568;10.018;2023-05-10T12:05:58;19.00;73.20
16287;DHT22;8251;53.568;10.018;2023-05-10T12:08:27;19.00;74.10
16287;DHT22;8251;53.568;10.018;2023-05-10T12:11:04;19.10;74.20
16287;DHT22;8251;53.568;10.018;2023-05-10T12:13:31;19.10;74.10
16287;DHT22;8251;53.568;10.018;2023-05-10T12:15:58;19.10;74.90
16287;DHT22;8251;53.568;10.018;2023-05-10T12:18:26;19.10;74.50
16287;DHT22;8251;53.568;10.018;2023-05-10T12:20:54;19.20;74.60
16287;DHT22;8251;53.568;10.018;2023-05-10T12:23:29;19.20;74.80
16287;DHT22;8251;53.568;10.018;2023-05-10T12:26:02;19.30;74.60
16287;DHT22;8251;53.568;10.018;2023-05-10T12:28:30;19.20;74.30
16287;DHT22;8251;53.568;10.018;2023-05-10T12:30:58;19.30;75.00
16287;DHT22;8251;53.568;10.018;2023-05-10T12:33:25;19.30;75.00
16287;DHT22;8251;53.568;10.018;2023-05-10T12:35:59;19.30;74.90
16287;DHT22;8251;53.568;10.018;2023-05-10T12:38:27;19.40;75.20
16287;DHT22;8251;53.568;10.018;2023-05-10T12:40:58;19.40;75.20
16287;DHT22;8251;53.568;10.018;2023-05-10T12:43:25;19.40;75.40
16287;DHT22;8251;53.568;10.018;2023-05-10T12:45:52;19.50;75.00
16287;DHT22;8251;53.568;10.018;2023-05-10T12:48:20;19.50;75.20
16287;DHT22;8251;53.568;10.018;2023-05-10T12:50:47;19.60;75.40
16287;DHT22;8251;53.568;10.018;2023-05-10T12:53:15;19.60;75.60
16287;DHT22;8251;53.568;10.018;2023-05-10T12:55:43;19.70;75.20
16287;DHT22;8251;53.568;10.018;2023-05-10T12:58:09;19.70;75.90
16287;DHT22;8251;53.568;10.018;2023-05-10T13:00:36;19.80;76.40
16287;DHT22;8251;53.568;10.018;2023-05-10T13:03:04;19.80;76.00
16287;DHT22;8251;53.568;10.018;2023-05-10T13:05:32;19.90;76.00
16287;DHT22;8251;53.568;10.018;2023-05-10T13:07:59;20.00;75.60
16287;DHT22;8251;53.568;10.018;2023-05-10T13:10:28;20.00;75.10
16287;DHT22;8251;53.568;10.018;2023-05-10T13:12:56;20.10;74.80
16287;DHT22;8251;53.568;10.018;2023-05-10T13:15:23;20.10;75.10
16287;DHT22;8251;53.568;10.018;2023-05-10T13:17:50;20.10;74.50
16287;DHT22;8251;53.568;10.018;2023-05-10T13:20:17;20.10;74.10
16287;DHT22;8251;53.568;10.018;2023-05-10T13:22:44;20.10;74.70
16287;DHT22;8251;53.568;10.018;2023-05-10T13:25:11;20.10;74.60
16287;DHT22;8251;53.568;10.018;2023-05-10T13:27:40;20.10;75.30
16287;DHT22;8251;53.568;10.018;2023-05-10T13:30:08;20.20;75.00
16287;DHT22;8251;53.568;10.018;2023-05-10T13:32:35;20.20;74.70
16287;DHT22;8251;53.568;10.018;2023-05-10T13:35:03;20.20;74.40
16287;DHT22;8251;53.568;10.018;2023-05-10T13:37:30;20.20;74.80
16287;DHT22;8251;53.568;10.018;2023-05-10T13:39:57;20.20;74.30
16287;DHT22;8251;53.568;10.018;2023-05-10T13:42:24;20.20;74.70
16287;DHT22;8251;53.568;10.018;2023-05-10T13:44:52;20.20;74.60
16287;DHT22;8251;53.568;10.018;2023-05-10T13:47:19;20.20;74.40
16287;DHT22;8251;53.568;10.018;2023-05-10T13:49:47;20.20;74.50
16287;DHT22;8251;53.568;10.018;2023-05-10T13:52:14;20.20;74.90
16287;DHT22;8251;53.568;10.018;2023-05-10T13:54:41;20.10;74.10
16287;DHT22;8251;53.568;10.018;2023-05-10T13:57:08;20.20;74.30
16287;DHT22;8251;53.568;10.018;2023-05-10T13:59:37;20.20;74.60
16287;DHT22;8251;53.568;10.018;2023-05-10T14:02:06;20.30;74.90
16287;DHT22;8251;53.568;10.018;2023-05-10T14:04:33;20.40;74.00
16287;DHT22;8251;53.568;10.018;2023-05-10T14:07:00;20.40;73.20
16287;DHT22;8251;53.568;10.018;2023-05-10T14:09:28;20.40;73.50
16287;DHT22;8251;53.568;10.018;2023-05-10T14:11:55;20.50;73.20
16287;DHT22;8251;53.568;10.018;2023-05-10T14:14:23;20.50;73.00
16287;DHT22;8251;53.568;10.018;2023-05-10T14:16:53;20.50;73.30
16287;DHT22;8251;53.568;10.018;2023-05-10T14:19:28;20.50;73.60
16287;DHT22;8251;53.568;10.018;2023-05-10T14:21:59;20.50;72.60
16287;DHT22;8251;53.568;10.018;2023-05-10T14:24:26;20.50;72.50
16287;DHT22;8251;53.568;10.018;2023-05-10T14:26:56;20.50;72.50
16287;DHT22;8251;53.568;10.018;2023-05-10T14:29:24;20.30;72.00
16287;DHT22;8251;53.568;10.018;2023-05-10T14:31:51;20.30;72.60
16287;DHT22;8251;53.568;10.018;2023-05-10T14:34:18;20.30;72.90
16287;DHT22;8251;53.568;10.018;2023-05-10T14:36:47;20.40;72.80
16287;DHT22;8251;53.568;10.018;2023-05-10T14:39:15;20.40;72.30
16287;DHT22;8251;53.568;10.018;2023-05-10T14:41:42;20.40;72.10
16287;DHT22;8251;53.568;10.018;2023-05-10T14:44:10;20.40;73.00
16287;DHT22;8251;53.568;10.018;2023-05-10T14:46:37;20.50;73.30
16287;DHT22;8251;53.568;10.018;2023-05-10T14:49:05;20.50;72.30
16287;DHT22;8251;53.568;10.018;2023-05-10T14:51:31;20.50;72.60
16287;DHT22;8251;53.568;10.018;2023-05-10T14:54:00;20.50;72.50
16287;DHT22;8251;53.568;10.018;2023-05-10T14:56:28;20.50;72.60
16287;DHT22;8251;53.568;10.018;2023-05-10T14:58:54;20.50;72.00
16287;DHT22;8251;53.568;10.018;2023-05-10T15:01:22;20.40;71.90
16287;DHT22;8251;53.568;10.018;2023-05-10T15:03:48;20.40;72.50
16287;DHT22;8251;53.568;10.018;2023-05-10T15:06:16;20.40;72.90
16287;DHT22;8251;53.568;10.018;2023-05-10T15:08:45;20.40;72.40
16287;DHT22;8251;53.568;10.018;2023-05-10T15:11:14;20.40;72.40
16287;DHT22;8251;53.568;10.018;2023-05-10T15:13:41;20.40;72.60
16287;DHT22;8251;53.568;10.018;2023-05-10T15:16:08;20.40;72.70
16287;DHT22;8251;53.568;10.018;2023-05-10T15:18:35;20.30;72.20
16287;DHT22;8251;53.568;10.018;2023-05-10T15:21:02;20.40;72.40
16287;DHT22;8251;53.568;10.018;2023-05-10T15:23:29;20.40;72.30
16287;DHT22;8251;53.568;10.018;2023-05-10T15:25:57;20.50;72.20
16287;DHT22;8251;53.568;10.018;2023-05-10T15:28:26;20.40;72.20
16287;DHT22;8251;53.568;10.018;2023-05-10T15:30:53;20.50;71.80
16287;DHT22;8251;53.568;10.018;2023-05-10T15:33:19;20.50;71.80
16287;DHT22;8251;53.568;10.018;2023-05-10T15:35:46;20.50;71.80
16287;DHT22;8251;53.568;10.018;2023-05-10T15:38:13;20.50;71.80
16287;DHT22;8251;53.568;10.018;2023-05-10T15:40:40;20.50;71.90
16287;DHT22;8251;53.568;10.018;2023-05-10T15:43:07;20.50;72.10